Home > Products > Valid Products > MTR

000
SAUS44 KMAF 251703
MTRGDP
METAR KGDP 251651Z AUTO 23012KT 10SM CLR 21/09 A3035 RMK AO2 SLP209
T02060094





000
SAUS44 KMAF 251654
MTR6R6
METAR K6R6 251653Z AUTO 00000KT 24/17 A3019 RMK AO1 SLP194 T02390167





000
SAUS44 KMAF 251603
MTRGDP
METAR KGDP 251551Z AUTO 23008KT 10SM CLR 17/08 A3035 RMK AO2 SLP213
T01720083





000
SAUS44 KMAF 251554
MTR6R6
METAR K6R6 251553Z AUTO 08003KT 22/17 A3020 RMK AO1 SLP198 T02170172





000
SAUS44 KMAF 251503
MTRGDP
METAR KGDP 251451Z AUTO 24008KT 10SM CLR 16/07 A3034 RMK AO2 SLP213
T01560072 53014





000
SAUS44 KMAF 251454
MTR6R6
METAR K6R6 251453Z AUTO 00000KT 20/17 A3019 RMK AO1 SLP198 T02000167
53012





000
SAUS44 KMAF 251403
MTRGDP
METAR KGDP 251351Z AUTO 23007KT 10SM CLR 14/07 A3032 RMK AO2 SLP208
T01440072





000
SAUS44 KMAF 251354
MTR6R6
METAR K6R6 251353Z AUTO 02004KT 18/16 A3017 RMK AO1 SLP192 T01830161





000
SAUS44 KMAF 251303
MTRGDP
METAR KGDP 251251Z AUTO 24008KT 10SM CLR 15/07 A3031 RMK AO2 SLP201
T01500067





000
SAUS44 KMAF 251254
MTR6R6
METAR K6R6 251253Z AUTO 02006KT 16/15 A3016 RMK AO1 SLP187 T01610150





000
SAUS44 KMAF 251203
MTRGDP
METAR KGDP 251151Z AUTO 24009KT 10SM CLR 16/07 A3029 RMK AO2 SLP192
T01560067 10178 20150 55001





000
SAUS44 KMAF 251203
MTRGDP
METAR KGDP 251151Z AUTO 24009KT 10SM CLR 16/07 A3029 RMK AO2 SLP192
T01560067 10178 20150 55001





000
SAUS44 KMAF 251154
MTR6R6
METAR K6R6 251153Z AUTO 36006KT 17/16 A3015 RMK AO1 SLP181 T01670156
10189 20167 53004





000
SAUS44 KMAF 251154
MTR6R6
METAR K6R6 251153Z AUTO 36006KT 17/16 A3015 RMK AO1 SLP181 T01670156
10189 20167 53004





000
SAUS44 KMAF 251103
MTRGDP
METAR KGDP 251051Z AUTO 25011KT 10SM CLR 16/07 A3029 RMK AO2 SLP186
T01560067





000
SAUS44 KMAF 251103
MTRGDP
METAR KGDP 251051Z AUTO 25011KT 10SM CLR 16/07 A3029 RMK AO2 SLP186
T01560067





000
SAUS44 KMAF 251054
MTR6R6
METAR K6R6 251053Z AUTO 36006KT 17/16 A3015 RMK AO1 SLP179 T01670156





000
SAUS44 KMAF 251054
MTR6R6
METAR K6R6 251053Z AUTO 36006KT 17/16 A3015 RMK AO1 SLP179 T01670156





000
SAUS44 KMAF 251003
MTRGDP
METAR KGDP 250951Z AUTO 24012KT 10SM CLR 16/07 A3029 RMK AO2 SLP186
T01610067





000
SAUS44 KMAF 250954
MTR6R6
METAR K6R6 250953Z AUTO 01007KT 17/16 A3014 RMK AO1 SLP175 T01720156





000
SAUS44 KMAF 250903
MTRGDP
METAR KGDP 250851Z AUTO 25010KT 10SM CLR 16/06 A3030 RMK AO2 SLP186
T01610061 58003





000
SAUS44 KMAF 250854
MTR6R6
METAR K6R6 250853Z AUTO 01007KT 17/16 A3014 RMK AO1 SLP176 T01720156
56003





000
SAUS44 KMAF 250803
MTRGDP
METAR KGDP 250751Z AUTO 25009KT 10SM CLR 17/08 A3030 RMK AO2 SLP188
T01670078





000
SAUS44 KMAF 250754
MTR6R6
METAR K6R6 250753Z AUTO 01007KT 18/16 A3014 RMK AO1 SLP176 T01780161





000
SAUS44 KMAF 250703
MTRGDP
METAR KGDP 250651Z AUTO 25008KT 10SM CLR 17/08 A3031 RMK AO2 SLP191
T01670078 402610133





000
SAUS44 KMAF 250654
MTR6R6
METAR K6R6 250653Z AUTO 02006KT 18/16 A3014 RMK AO1 SLP176 T01830161





000
SAUS44 KMAF 250603
MTRGDP
METAR KGDP 250551Z AUTO 25011KT 10SM CLR 18/07 A3031 RMK AO2 SLP192
T01780072 10222 20178 58001





000
SAUS44 KMAF 250554
MTR6R6
METAR K6R6 250553Z AUTO 35005KT 19/17 A3015 RMK AO1 SLP180 T01890167
10261 20189 402890150 50001





000
SAUS44 KMAF 250503
MTRGDP
METAR KGDP 250451Z AUTO 25009KT 10SM CLR 18/08 A3032 RMK AO2 SLP200
T01830078





000
SAUS44 KMAF 250454
MTR6R6
METAR K6R6 250453Z AUTO 01006KT 19/17 A3016 RMK AO1 SLP184 T01940167





000
SAUS44 KMAF 250403
MTRGDP
METAR KGDP 250351Z AUTO 24007KT 10SM CLR 19/07 A3032 RMK AO2 SLP207
T01890067





000
SAUS44 KMAF 250403
MTRGDP
METAR KGDP 250351Z AUTO 24007KT 10SM CLR 19/07 A3032 RMK AO2 SLP207
T01890067





000
SAUS44 KMAF 250354
MTR6R6
METAR K6R6 250353Z AUTO 03007KT 19/17 A3016 RMK AO1 SLP187 T01940167





000
SAUS44 KMAF 250354
MTR6R6
METAR K6R6 250353Z AUTO 03007KT 19/17 A3016 RMK AO1 SLP187 T01940167





000
SAUS44 KMAF 250303
MTRGDP
METAR KGDP 250251Z AUTO 25008KT 10SM CLR 19/06 A3031 RMK AO2 SLP204
T01940061 53010





000
SAUS44 KMAF 250254
MTR6R6
METAR K6R6 250253Z AUTO 04006KT 20/17 A3015 RMK AO1 SLP183 T02000167
51016





000
SAUS44 KMAF 250203
MTRGDP
METAR KGDP 250151Z AUTO 24007KT 10SM CLR 19/06 A3030 RMK AO2 SLP202
T01940061





000
SAUS44 KMAF 250154
MTR6R6
METAR K6R6 250153Z AUTO 08006KT 21/16 A3013 RMK AO1 SLP178 T02110161





000
SAUS44 KMAF 250103
MTRGDP
METAR KGDP 250051Z AUTO 24007KT 10SM CLR 21/07 A3029 RMK AO2 SLP196
T02060067





000
SAUS44 KMAF 250054
MTR6R6
METAR K6R6 250053Z AUTO 11005KT 23/15 A3012 RMK AO1 SLP172 T02330150





000
SAUS44 KMAF 250003
MTRGDP
METAR KGDP 242351Z AUTO 24008KT 10SM CLR 22/07 A3028 RMK AO2 SLP188
T02220067 10261 20222 51000





000
SAUS44 KMAF 242354
MTR6R6
METAR K6R6 242353Z AUTO 12008KT 26/14 A3010 RMK AO1 SLP163 T02610139
10289 20250 55002





000
SAUS44 KMAF 242303
MTRGDP
METAR KGDP 242251Z AUTO 24011KT 10SM CLR 24/07 A3028 RMK AO2 SLP185
T02390067





000
SAUS44 KMAF 242254
MTR6R6
METAR K6R6 242253Z AUTO 12010KT 28/15 A3009 RMK AO1 SLP160 T02780150





000
SAUS44 KMAF 242203
MTRGDP
METAR KGDP 242151Z AUTO 24013KT 10SM CLR 25/06 A3028 RMK AO2 SLP182
T02500061





000
SAUS44 KMAF 242154
MTR6R6
METAR K6R6 242153Z AUTO 11009KT 28/16 A3010 RMK AO1 SLP162 T02830161





000
SAUS44 KMAF 242103
MTRGDP
METAR KGDP 242051Z AUTO 25018KT 10SM CLR 26/07 A3027 RMK AO2 SLP180
T02560067 56019





000
SAUS44 KMAF 242054
MTR6R6
METAR K6R6 242053Z AUTO 10009KT 28/17 A3010 RMK AO1 SLP163 T02830167
56023





000
SAUS44 KMAF 242003
MTRGDP
METAR KGDP 241951Z AUTO 23015G22KT 10SM CLR 25/08 A3029 RMK AO2
SLP186 T02500078





000
SAUS44 KMAF 241954
MTR6R6
METAR K6R6 241953Z AUTO VRB06KT 28/16 A3012 RMK AO1 SLP167 T02780161





000
SAUS44 KMAF 241954
MTR6R6
METAR K6R6 241953Z AUTO VRB06KT 28/16 A3012 RMK AO1 SLP167 T02780161





000
SAUS44 KMAF 241903
MTRGDP
METAR KGDP 241851Z AUTO 24015G22KT 10SM CLR 24/09 A3031 RMK AO2
SLP194 T02440089





000
SAUS44 KMAF 241854
MTR6R6
METAR K6R6 241853Z AUTO 20007KT 27/17 A3015 RMK AO1 SLP178 T02670172





000
SAUS44 KMAF 241803
MTRGDP
METAR KGDP 241751Z AUTO 24015KT 10SM CLR 23/11 A3034 RMK AO2 SLP205
T02280106 10228 20133 50002





000
SAUS44 KMAF 241754
MTR6R6
METAR K6R6 241753Z AUTO 17006KT 25/18 A3018 RMK AO1 SLP189 T02500178
10250 20150 58004





000
SAUS44 KMAF 241703
MTRGDP
METAR KGDP 241651Z AUTO 25012KT 10SM CLR 20/11 A3035 RMK AO2 SLP214
T02000106





000
SAUS44 KMAF 241654
MTR6R6
METAR K6R6 241653Z AUTO 22004KT 23/18 A3019 RMK AO1 SLP197 T02280178





000
SAUS44 KMAF 241603
MTRGDP
METAR KGDP 241551Z AUTO 23011KT 10SM CLR 17/10 A3035 RMK AO2 SLP217
T01670100





000
SAUS44 KMAF 241554
MTR6R6
METAR K6R6 241553Z AUTO 25006KT 19/18 A3019 RMK AO1 SLP200 T01940178





000
SAUS44 KMAF 241503
MTRGDP
METAR KGDP 241451Z AUTO 25010KT 10SM CLR 15/09 A3033 RMK AO2 SLP213
T01500089 53013





000
SAUS44 KMAF 241454
MTR6R6
METAR K6R6 241453Z AUTO 24007KT 18/18 A3019 RMK AO1 SLP197 T01830178





000
SAUS44 KMAF 241403
MTRGDP
METAR KGDP 241351Z AUTO 23008KT 10SM CLR 14/08 A3032 RMK AO2 SLP212
T01390083





000
SAUS44 KMAF 241403
MTRGDP
METAR KGDP 241351Z AUTO 23008KT 10SM CLR 14/08 A3032 RMK AO2 SLP212
T01390083





000
SAUS44 KMAF 241354
MTR6R6
METAR K6R6 241353Z AUTO 27003KT 16/16 A3016 RMK AO1 SLP191 T01610156





000
SAUS44 KMAF 241303
MTRGDP
METAR KGDP 241251Z AUTO 23007KT 10SM CLR 14/09 A3030 RMK AO2 SLP205
T01390089





000
SAUS44 KMAF 241254
MTR6R6
METAR K6R6 241253Z AUTO 36003KT 16/16 A3015 RMK AO1 SLP184 T01610156
$





000
SAUS44 KMAF 241203
MTRGDP
METAR KGDP 241151Z AUTO 24009KT 10SM CLR 14/09 A3029 RMK AO2 SLP194
T01440089 10172 20139 53002





000
SAUS44 KMAF 241154
MTR6R6
METAR K6R6 241153Z AUTO 33004KT 16/15 A3013 RMK AO1 SLP179 T01560150
10183 20150 53003





000
SAUS44 KMAF 241103
MTRGDP
METAR KGDP 241051Z AUTO 22009KT 10SM CLR 14/09 A3028 RMK AO2 SLP189
T01440094





000
SAUS44 KMAF 241054
MTR6R6
METAR K6R6 241053Z AUTO 35004KT 15/14 A3012 RMK AO1 SLP176 T01500144





000
SAUS44 KMAF 241054
MTR6R6
METAR K6R6 241053Z AUTO 35004KT 15/14 A3012 RMK AO1 SLP176 T01500144





000
SAUS44 KMAF 241003
MTRGDP
METAR KGDP 240951Z AUTO 21007KT 10SM CLR 14/09 A3027 RMK AO2 SLP184
T01440089





000
SAUS44 KMAF 241003
MTRGDP
METAR KGDP 240951Z AUTO 21007KT 10SM CLR 14/09 A3027 RMK AO2 SLP184
T01440089





000
SAUS44 KMAF 240954
MTR6R6
METAR K6R6 240953Z AUTO 33003KT 16/15 A3012 RMK AO1 SLP172 T01610150





000
SAUS44 KMAF 240903
MTRGDP
METAR KGDP 240851Z AUTO 20008KT 10SM CLR 15/09 A3028 RMK AO2 SLP185
T01500094 58000





000
SAUS44 KMAF 240854
MTR6R6
METAR K6R6 240853Z AUTO 35005KT 17/16 A3013 RMK AO1 SLP172 T01720161
58002





000
SAUS44 KMAF 240803
MTRGDP
METAR KGDP 240751Z AUTO 21007KT 10SM CLR 16/10 A3028 RMK AO2 SLP187
T01560100





000
SAUS44 KMAF 240754
MTR6R6
METAR K6R6 240753Z AUTO 35005KT 17/17 A3013 RMK AO1 SLP176 T01720167





000
SAUS44 KMAF 240703
MTRGDP
METAR KGDP 240651Z AUTO 20007KT 10SM CLR 17/10 A3028 RMK AO2 SLP186
T01670100 402440122





000
SAUS44 KMAF 240654
MTR6R6
METAR K6R6 240653Z AUTO 36005KT 18/17 A3013 RMK AO1 SLP176 T01780167





000
SAUS44 KMAF 240603
MTRGDP
METAR KGDP 240551Z AUTO 21005KT 10SM CLR 17/11 A3028 RMK AO2 SLP186
T01720106 10206 20172 50001





000
SAUS44 KMAF 240554
MTR6R6
METAR K6R6 240553Z AUTO 01007KT 18/17 A3013 RMK AO1 SLP178 T01830172
10228 20183 402610167 50002





000
SAUS44 KMAF 240503
MTRGDP
METAR KGDP 240451Z AUTO 21005KT 10SM CLR 18/11 A3028 RMK AO2 SLP190
T01780106





000
SAUS44 KMAF 240503
MTRGDP
METAR KGDP 240451Z AUTO 21005KT 10SM CLR 18/11 A3028 RMK AO2 SLP190
T01780106





000
SAUS44 KMAF 240454
MTR6R6
METAR K6R6 240453Z AUTO 01006KT 18/17 A3013 RMK AO1 SLP180 T01830172





000
SAUS44 KMAF 240454
MTR6R6
METAR K6R6 240453Z AUTO 01006KT 18/17 A3013 RMK AO1 SLP180 T01830172





000
SAUS44 KMAF 240403
MTRGDP
METAR KGDP 240351Z AUTO 23007KT 10SM CLR 18/11 A3028 RMK AO2 SLP197
T01780106





000
SAUS44 KMAF 240403
MTRGDP
METAR KGDP 240351Z AUTO 23007KT 10SM CLR 18/11 A3028 RMK AO2 SLP197
T01780106





000
SAUS44 KMAF 240354
MTR6R6
METAR K6R6 240353Z AUTO 36005KT 18/17 A3013 RMK AO1 SLP179 T01830172





000
SAUS44 KMAF 240354
MTR6R6
METAR K6R6 240353Z AUTO 36005KT 18/17 A3013 RMK AO1 SLP179 T01830172





000
SAUS44 KMAF 240303
MTRGDP
METAR KGDP 240251Z AUTO 00000KT 10SM CLR 18/13 A3028 RMK AO2 SLP198
T01780128 51012





000
SAUS44 KMAF 240303
MTRGDP
METAR KGDP 240251Z AUTO 00000KT 10SM CLR 18/13 A3028 RMK AO2 SLP198
T01780128 51012





000
SAUS44 KMAF 240254
MTR6R6
METAR K6R6 240253Z AUTO 02006KT 19/17 A3012 RMK AO1 SLP177 T01890172
51012





000
SAUS44 KMAF 240254
MTR6R6
METAR K6R6 240253Z AUTO 02006KT 19/17 A3012 RMK AO1 SLP177 T01890172
51012





000
SAUS44 KMAF 240203
MTRGDP
METAR KGDP 240151Z AUTO 06008KT 10SM CLR 17/13 A3026 RMK AO2 SLP196
T01720128





000
SAUS44 KMAF 240203
MTRGDP
METAR KGDP 240151Z AUTO 06008KT 10SM CLR 17/13 A3026 RMK AO2 SLP196
T01720128





000
SAUS44 KMAF 240154
MTR6R6
METAR K6R6 240153Z AUTO 03005KT 19/17 A3012 RMK AO1 SLP174 T01940172





000
SAUS44 KMAF 240154
MTR6R6
METAR K6R6 240153Z AUTO 03005KT 19/17 A3012 RMK AO1 SLP174 T01940172





000
SAUS44 KMAF 240103
MTRGDP
METAR KGDP 240051Z AUTO 04007KT 10SM CLR 18/12 A3026 RMK AO2 SLP191
T01830122





000
SAUS44 KMAF 240054
MTR6R6
METAR K6R6 240053Z AUTO 09004KT 21/17 A3011 RMK AO1 SLP169 T02110172





000
SAUS44 KMAF 232354
MTR6R6
METAR K6R6 232353Z AUTO 09008KT 23/17 A3009 RMK AO1 SLP162 T02280167
10261 20206 53002





000
SAUS44 KMAF 232302
MTRGDP
METAR KGDP 232251Z AUTO 24013KT 10SM CLR 22/07 A3022 RMK AO2 SLP171
T02220072





000
SAUS44 KMAF 232254
MTR6R6
METAR K6R6 232253Z AUTO 11009KT 24/16 A3007 RMK AO1 SLP156 T02390161





000
SAUS44 KMAF 232202
MTRGDP
METAR KGDP 232151Z AUTO 24013KT 10SM CLR 24/08 A3022 RMK AO2 SLP165
T02440078





000
SAUS44 KMAF 232154
MTR6R6
METAR K6R6 232153Z AUTO 10010KT 25/16 A3008 RMK AO1 SLP156 T02500161





000
SAUS44 KMAF 232154
MTR6R6
METAR K6R6 232153Z AUTO 10010KT 25/16 A3008 RMK AO1 SLP156 T02500161





000
SAUS44 KMAF 232103
MTRGDP
METAR KGDP 232051Z AUTO 24017KT 10SM CLR 24/09 A3022 RMK AO2 SLP167
T02390094 56022





000
SAUS44 KMAF 232054
MTR6R6
METAR K6R6 232053Z AUTO 14006KT 26/16 A3008 RMK AO1 SLP157 T02560161
56024





000
SAUS44 KMAF 232003
MTRGDP
METAR KGDP 231951Z AUTO 26015G21KT 10SM CLR 23/12 A3024 RMK AO2
SLP173 T02330117





000
SAUS44 KMAF 231954
MTR6R6
METAR K6R6 231953Z AUTO 24/16 A3010 RMK AO1 SLP166 T02390161





000
SAUS44 KMAF 231954
MTR6R6
METAR K6R6 231953Z AUTO 24/16 A3010 RMK AO1 SLP166 T02390161





000
SAUS44 KMAF 231903
MTRGDP
METAR KGDP 231851Z AUTO 25010KT 10SM CLR 22/12 A3026 RMK AO2 SLP182
T02220122





000
SAUS44 KMAF 231903
MTRGDP
METAR KGDP 231851Z AUTO 25010KT 10SM CLR 22/12 A3026 RMK AO2 SLP182
T02220122





000
SAUS44 KMAF 231854
MTR6R6
METAR K6R6 231853Z AUTO VRB03KT 22/16 A3013 RMK AO1 SLP177 T02220161





000
SAUS44 KMAF 231854
MTR6R6
METAR K6R6 231853Z AUTO VRB03KT 22/16 A3013 RMK AO1 SLP177 T02220161





000
SAUS44 KMAF 231803
MTRGDP
METAR KGDP 231751Z AUTO 24014KT 10SM CLR 21/13 A3030 RMK AO2 SLP198
T02110128 10217 20128 50001





000
SAUS44 KMAF 231803
MTRGDP
METAR KGDP 231751Z AUTO 24014KT 10SM CLR 21/13 A3030 RMK AO2 SLP198
T02110128 10217 20128 50001





000
SAUS44 KMAF 231754
MTR6R6
METAR K6R6 231753Z AUTO 19006KT 21/16 A3016 RMK AO1 SLP186 T02060161
10206 20167 50001





000
SAUS44 KMAF 231754
MTR6R6
METAR K6R6 231753Z AUTO 19006KT 21/16 A3016 RMK AO1 SLP186 T02060161
10206 20167 50001





000
SAUS44 KMAF 231703
MTRGDP
METAR KGDP 231651Z AUTO 24012KT 9SM CLR 18/13 A3031 RMK AO2 SLP206
T01830133





000
SAUS44 KMAF 231703
MTRGDP
METAR KGDP 231651Z AUTO 24012KT 9SM CLR 18/13 A3031 RMK AO2 SLP206
T01830133





000
SAUS44 KMAF 231654
MTR6R6
METAR K6R6 231653Z AUTO 18003KT 18/16 A3017 RMK AO1 SLPNO T01830156





000
SAUS44 KMAF 231654
MTR6R6
METAR K6R6 231653Z AUTO 18003KT 18/16 A3017 RMK AO1 SLPNO T01830156





000
SAUS44 KMAF 231603
MTRGDP
METAR KGDP 231551Z AUTO 23011KT 8SM SCT003 14/14 A3030 RMK AO2
SLP209 T01440139





000
SAUS44 KMAF 231559
MTRGDP
SPECI KGDP 231547Z AUTO 23012KT 7SM SCT003 14/13 A3030 RMK AO2





000
SAUS44 KMAF 231559
MTRGDP
SPECI KGDP 231547Z AUTO 23012KT 7SM SCT003 14/13 A3030 RMK AO2





000
SAUS44 KMAF 231557
MTR6R6
METAR K6R6 231553Z AUTO 23006KT 18/16 A3017 RMK AO1 SLP195 T01780156





000
SAUS44 KMAF 231547
MTRGDP
SPECI KGDP 231535Z AUTO 23009KT 5SM BR BKN001 14/13 A3029 RMK AO2
T01390133





000
SAUS44 KMAF 231540
MTRGDP
SPECI KGDP 231528Z AUTO 23011KT 1 1/2SM BR BKN001 14/13 A3029 RMK
AO2 T01390133





000
SAUS44 KMAF 231503
MTRGDP
METAR KGDP 231451Z AUTO 23010KT M1/4SM FG VV001 13/13 A3028 RMK AO2
SLP204 T01330133 53015 $





000
SAUS44 KMAF 231454
MTR6R6
METAR K6R6 231453Z AUTO 25005KT 17/16 A3015 RMK AO1 SLP189 T01720156





000
SAUS44 KMAF 231454
MTR6R6
METAR K6R6 231453Z AUTO 25005KT 17/16 A3015 RMK AO1 SLP189 T01720156





000
SAUS44 KMAF 231354
MTR6R6
METAR K6R6 231353Z AUTO 21005KT 17/16 A3013 RMK AO1 SLP180 T01720156





000
SAUS44 KMAF 231303
MTRGDP
METAR KGDP 231251Z AUTO 24012KT M1/4SM FG VV001 13/12 A3024 RMK AO2
SLP189 T01280122





000
SAUS44 KMAF 231254
MTR6R6
METAR K6R6 231253Z AUTO 25003KT 17/16 A3012 RMK AO1 SLP176 T01720156





000
SAUS44 KMAF 231203
MTRGDP
METAR KGDP 231151Z AUTO 24010KT 1/4SM FG VV001 13/12 A3023 RMK AO2
SLP184 T01280122 10156 20122 53001





000
SAUS44 KMAF 231154
MTR6R6
METAR K6R6 231153Z AUTO 00000KT 17/16 A3011 RMK AO1 SLP171 T01720156
10172 20167 55001 $





000
SAUS44 KMAF 231127
MTRGDP
SPECI KGDP 231115Z AUTO 24011KT 1/4SM FG VV001 12/12 A3022 RMK AO2
T01220122





000
SAUS44 KMAF 231123
MTRGDP
SPECI KGDP 231111Z AUTO 24011KT 1SM BR VV001 12/12 A3022 RMK AO2
T01220117





000
SAUS44 KMAF 231121
MTRGDP
SPECI KGDP 231109Z AUTO 24011KT 2 1/2SM BR BKN002 12/12 A3022 RMK
AO2 T01220117





000
SAUS44 KMAF 231112
MTRGDP
SPECI KGDP 231101Z AUTO 24011KT 7SM FEW002 12/12 A3022 RMK AO2
T01220117





000
SAUS44 KMAF 231103
MTRGDP
METAR KGDP 231051Z AUTO 24011KT 8SM CLR 13/12 A3022 RMK AO2 SLP174
T01280117





000
SAUS44 KMAF 231054
MTR6R6
METAR K6R6 231053Z AUTO 00000KT 17/16 A3010 RMK AO1 SLP168 T01670156
$





000
SAUS44 KMAF 231003
MTRGDP
METAR KGDP 230951Z AUTO 24010KT 5SM BR CLR 13/12 A3022 RMK AO2
SLP172 T01280122





000
SAUS44 KMAF 230954
MTR6R6
METAR K6R6 230953Z AUTO 21005KT 17/16 A3010 RMK AO1 SLP168 T01670161
$





000
SAUS44 KMAF 230954
MTR6R6
METAR K6R6 230953Z AUTO 21005KT 17/16 A3010 RMK AO1 SLP168 T01670161
$





000
SAUS44 KMAF 230903
MTRGDP
METAR KGDP 230851Z AUTO 25012KT 8SM CLR 13/12 A3022 RMK AO2 SLP172
T01330122 56003





000
SAUS44 KMAF 230854
MTR6R6
METAR K6R6 230853Z AUTO 14004KT 17/16 A3011 RMK AO1 SLP171 T01720161
$





000
SAUS44 KMAF 230803
MTRGDP
METAR KGDP 230751Z AUTO 24010KT 10SM CLR 14/12 A3023 RMK AO2 SLP175
T01390117





000
SAUS44 KMAF 230754
MTR6R6
METAR K6R6 230753Z AUTO 00000KT 17/16 A3012 RMK AO1 SLP173 T01670156
$





000
SAUS44 KMAF 230703
MTRGDP
METAR KGDP 230651Z AUTO 24006KT 10SM CLR 16/12 A3023 RMK AO2 SLP171
T01560117 402330122





000
SAUS44 KMAF 230655
MTR6R6
METAR K6R6 230654Z AUTO 00000KT 17/16 A3012 RMK AO1 SLP173 T01670156
$





000
SAUS44 KMAF 230603
MTRGDP
METAR KGDP 230551Z AUTO 04005KT 9SM CLR 14/13 A3024 RMK AO2 SLP178
T01440133 10167 20139 51005





000
SAUS44 KMAF 230554
MTR6R6
METAR K6R6 230553Z AUTO 13003KT 17/15 A3012 RMK AO1 SLP175 T01670150
10200 20150 402110150





000
SAUS44 KMAF 230554
MTR6R6
METAR K6R6 230553Z AUTO 13003KT 17/15 A3012 RMK AO1 SLP175 T01670150
10200 20150 402110150





000
SAUS44 KMAF 230503
MTRGDP
METAR KGDP 230451Z AUTO 06007KT 9SM CLR 15/13 A3023 RMK AO2 SLP177
T01500128





000
SAUS44 KMAF 230503
MTRGDP
METAR KGDP 230451Z AUTO 06007KT 9SM CLR 15/13 A3023 RMK AO2 SLP177
T01500128





000
SAUS44 KMAF 230403
MTRGDP
METAR KGDP 230351Z AUTO 06013KT 8SM CLR 14/13 A3023 RMK AO2 SLP182
T01440133





000
SAUS44 KMAF 230354
MTR6R6
METAR K6R6 230353Z AUTO 32003KT 16/14 A3014 RMK AO1 SLP182 T01560139





000
SAUS44 KMAF 230354
MTR6R6
METAR K6R6 230353Z AUTO 32003KT 16/14 A3014 RMK AO1 SLP182 T01560139





000
SAUS44 KMAF 230303
MTRGDP
METAR KGDP 230251Z AUTO 06017KT 8SM CLR 15/13 A3022 RMK AO2 SLP182
T01500133 51009





000
SAUS44 KMAF 230254
MTR6R6
METAR K6R6 230253Z AUTO 12005KT 16/14 A3011 RMK AO1 SLP174 T01560139
50011





000
SAUS44 KMAF 230203
MTRGDP
METAR KGDP 230151Z AUTO 05015KT 10SM CLR 15/13 A3021 RMK AO2 SLP181
T01500133





000
SAUS44 KMAF 230203
MTRGDP
METAR KGDP 230151Z AUTO 05015KT 10SM CLR 15/13 A3021 RMK AO2 SLP181
T01500133





000
SAUS44 KMAF 230154
MTR6R6
METAR K6R6 230153Z AUTO 09004KT 17/14 A3012 RMK AO1 SLP175 T01720139





000
SAUS44 KMAF 230154
MTR6R6
METAR K6R6 230153Z AUTO 09004KT 17/14 A3012 RMK AO1 SLP175 T01720139





000
SAUS44 KMAF 230137
MTRGDP
SPECI KGDP 230125Z AUTO 05014KT 10SM FEW008 15/13 A3021 RMK AO2
T01500133





000
SAUS44 KMAF 230137
MTRGDP
SPECI KGDP 230125Z AUTO 05014KT 10SM FEW008 15/13 A3021 RMK AO2
T01500133





000
SAUS44 KMAF 230103
MTRGDP
METAR KGDP 230051Z AUTO 07014KT 10SM CLR 16/13 A3020 RMK AO2 SLP176
T01560133





000
SAUS44 KMAF 230103
MTRGDP
METAR KGDP 230051Z AUTO 07014KT 10SM CLR 16/13 A3020 RMK AO2 SLP176
T01560133





000
SAUS44 KMAF 230054
MTR6R6
METAR K6R6 230053Z AUTO 10008KT 18/15 A3010 RMK AO1 SLP168 T01780150





000
SAUS44 KMAF 230054
MTR6R6
METAR K6R6 230053Z AUTO 10008KT 18/15 A3010 RMK AO1 SLP168 T01780150





000
SAUS44 KMAF 230003
MTRGDP
METAR KGDP 222351Z AUTO 07010KT 10SM FEW035 17/13 A3018 RMK AO2
SLP168 T01670133 10233 20167 53005





000
SAUS44 KMAF 230003
MTRGDP
METAR KGDP 222351Z AUTO 07010KT 10SM FEW035 17/13 A3018 RMK AO2
SLP168 T01670133 10233 20167 53005





000
SAUS44 KMAF 222354
MTR6R6
METAR K6R6 222353Z AUTO 11010KT 19/16 A3008 RMK AO1 SLP160 T01890156
10211 20189 53002





000
SAUS44 KMAF 222354
MTR6R6
METAR K6R6 222353Z AUTO 11010KT 19/16 A3008 RMK AO1 SLP160 T01890156
10211 20189 53002





000
SAUS44 KMAF 222303
MTRGDP
METAR KGDP 222251Z AUTO VRB03KT 10SM CLR 21/11 A3017 RMK AO2 SLP157
T02060111





000
SAUS44 KMAF 222303
MTRGDP
METAR KGDP 222251Z AUTO VRB03KT 10SM CLR 21/11 A3017 RMK AO2 SLP157
T02060111





000
SAUS44 KMAF 222254
MTR6R6
METAR K6R6 222253Z AUTO 10011KT 20/17 A3007 RMK AO1 SLP157 T02000167





000
SAUS44 KMAF 222254
MTR6R6
METAR K6R6 222253Z AUTO 10011KT 20/17 A3007 RMK AO1 SLP157 T02000167





000
SAUS44 KMAF 222202
MTRGDP
METAR KGDP 222151Z AUTO 24011KT 10SM CLR 22/10 A3016 RMK AO2 SLP151
T02220100





000
SAUS44 KMAF 222154
MTR6R6
METAR K6R6 222153Z AUTO 09010KT 21/16 A3007 RMK AO1 SLP156 T02060161





000
SAUS44 KMAF 222103
MTRGDP
METAR KGDP 222051Z AUTO 24014G21KT 10SM CLR 22/12 A3017 RMK AO2
SLP152 T02220117 56016





000
SAUS44 KMAF 222054
MTR6R6
METAR K6R6 222053Z AUTO 11010KT 21/16 A3007 RMK AO1 SLP157 T02060161
56015





000
SAUS44 KMAF 222002
MTRGDP
METAR KGDP 221951Z AUTO 26013G23KT 10SM SCT023 21/12 A3018 RMK AO2
SLP159 T02060122





000
SAUS44 KMAF 221954
MTR6R6
METAR K6R6 221953Z AUTO 11006KT 21/16 A3008 RMK AO1 SLP161 T02060161





000
SAUS44 KMAF 221932
MTRGDP
SPECI KGDP 221921Z AUTO 25014G22KT 10SM BKN021 23/13 A3019 RMK AO2
T02280133





000
SAUS44 KMAF 221902
MTRGDP
METAR KGDP 221851Z AUTO 23016KT 10SM FEW030 22/13 A3020 RMK AO2
SLP165 T02170128





000
SAUS44 KMAF 221855
MTR6R6
METAR K6R6 221853Z AUTO 10008KT 21/16 A3010 RMK AO1 SLP166 T02060161





000
SAUS44 KMAF 221851
MTRGDP
SPECI KGDP 221839Z AUTO 23012G21KT 10SM SCT026 SCT030 20/13 A3021
RMK AO2 T02000128





000
SAUS44 KMAF 221840
MTRGDP
SPECI KGDP 221829Z AUTO 22014G18KT 10SM FEW018 BKN025 21/13 A3021
RMK AO2 T02060128





000
SAUS44 KMAF 221832
MTRGDP
SPECI KGDP 221820Z AUTO 24012KT 10SM SCT019 19/13 A3022 RMK AO2
T01890128





000
SAUS44 KMAF 221802
MTRGDP
METAR KGDP 221751Z AUTO 23011KT 10SM SCT016 BKN022 19/13 A3022 RMK
AO2 SLP177 T01940133 10194 20122 58002





000
SAUS44 KMAF 221802
MTRGDP
METAR KGDP 221751Z AUTO 23011KT 10SM SCT016 BKN022 19/13 A3022 RMK
AO2 SLP177 T01940133 10194 20122 58002





000
SAUS44 KMAF 221754
MTR6R6
METAR K6R6 221753Z AUTO 09008KT 20/16 A3012 RMK AO1 SLP173 T02000161
10200 20183 50004





000
SAUS44 KMAF 221754
MTR6R6
METAR K6R6 221753Z AUTO 09008KT 20/16 A3012 RMK AO1 SLP173 T02000161
10200 20183 50004





    US Dept of Commerce
    National Oceanic and Atmospheric Administration
    National Weather Service
    1325 East West Highway
    Silver Spring, MD 20910
    Page Author: NWS Internet Services Team
Disclaimer
Information Quality
Credits
Glossary
Privacy Policy
Freedom of Information Act (FOIA)
About Us
Career Opportunities